Overview Statistics Trail Chart Weather Telemetry Raw packets
 

This is the latest recevied weather packets stored in our database for station/object DL6DJ-15. If no packets are shown the sender has not sent any weather packets the latest 10 day(s).

<< 27 28 29 30 31 32 33 >>
Time Temp. Humidity Pressure Rain* Wind** Luminosity Snow
1788426015 27.22° C 35% 1024 hPa - - - -
1788425715 27.22° C 33% 1024 hPa - - - -
1788425415 27.78° C 33% 1023.9 hPa - - - -
1788425114 27.22° C 32% 1023.8 hPa - - - -
1788424814 27.78° C 31% 1023.8 hPa - - - -
1788424513 29.44° C 29% 1023.7 hPa - - - -
1788424213 29.44° C 31% 1023.8 hPa - - - -
1788423913 29.44° C 30% 1023.9 hPa - - - -
1788423612 28.89° C 33% 1023.9 hPa - - - -
1788423312 26.11° C 36% 1024 hPa - - - -
1788423011 25.56° C 38% 1024.1 hPa - - - -
1788422711 26.11° C 35% 1024.1 hPa - - - -
1788422410 27.78° C 35% 1024 hPa - - - -
1788422110 27.22° C 37% 1023.9 hPa - - - -
1788421809 25° C 40% 1023.9 hPa - - - -
1788421509 25.56° C 39% 1023.7 hPa - - - -
1788421209 24.44° C 42% 1023.8 hPa - - - -
1788420908 25° C 40% 1023.8 hPa - - - -
1788420608 25.56° C 40% 1023.7 hPa - - - -
1788420308 24.44° C 42% 1023.7 hPa - - - -
1788420007 25° C 40% 1023.8 hPa - - - -
1788419707 26.67° C 38% 1023.8 hPa - - - -
1788419406 27.22° C 36% 1023.9 hPa - - - -
1788419105 27.78° C 37% 1023.8 hPa - - - -
1788418805 25.56° C 42% 1023.9 hPa - - - -

* Rain since midnight (hover to see other rain measurements)
** Current wind speed in m/s (hover to see current wind gust speed)